VVNB Airport Information

Runway Information
Runway 11L Length 12466 ft width 148 ft
Elevation 40 ft Threshold 0 ft Heading 107
Runway 29R Length 12466 ft Width 148 ft
Elevation 40 ft Threshold 0 ft Heading 287
Runway 11R Length 12466 ft width 148 ft
Elevation 38 ft Threshold 0 ft Heading 107
Runway 29L Length 12466 ft Width 148 ft
Elevation 39 ft Threshold 0 ft Heading 287
Airport Frequencies
Type APP Name APP Frequency 125.1 MHZ
Type GND Name GND Frequency 121.9 MHZ
Type TWR Name TWR Frequency 118.2 MHZ
Airport Navaids
Type NDB Name Noibai Frequency 230 KHZ
Type NDB Name Noibai Frequency 320 KHZ
Type VOR-DME Name Noibai Frequency 116100 KHZ
Airport Weather Information & NOTAM
ADDS - METARS form results

(2348 UTC 18 September 2021)
Data provider http://aviationweather.gov/metar/data/
 
METAR text: VVNB 182330Z 06004KT 5000 BR SCT004 27/26 Q1009 NOSIG
Conditions at: VVNB (HANOI/NOIBAI INT, VN) observed 2330 UTC 18 September 2021
Temperature: 27.0°C (81°F)
Dewpoint: 26.0°C (79°F) [RH = 94%]
Pressure (altimeter): 29.79 inches Hg (1009.0 mb)
Winds: from the ENE (60 degrees) at 5 MPH (4 knots; 2.1 m/s)
Visibility: 3 miles ( 5 km)
Ceiling: at least 12,000 feet AGL
Clouds: scattered clouds at 400 feet AGL
Weather: BR  (mist)

METAR text: VVNB 182300Z 03003KT 3100 BR FEW004 26/25 Q1009 NOSIG
Conditions at: VVNB (HANOI/NOIBAI INT, VN) observed 2300 UTC 18 September 2021
Temperature: 26.0°C (79°F)
Dewpoint: 25.0°C (77°F) [RH = 94%]
Pressure (altimeter): 29.79 inches Hg (1009.0 mb)
Winds: from the NNE (30 degrees) at 3 MPH (3 knots; 1.5 m/s)
Visibility: 1.93 miles (3.11 km)
Ceiling: at least 12,000 feet AGL
Clouds: few clouds at 400 feet AGL
Weather: BR  (mist)

Forecast for: VVNB (HANOI/NOIBAI INT, VN)
Text: TAF VVNB 182300Z 1900/1924 VRB02KT 3500 BR FEW025
Forecast period: 0000 to 0100 UTC 19 September 2021
Forecast type: FROM: standard forecast or significant change
Winds: variable direction winds at 2 MPH (2 knots; 1.0 m/s)
Visibility: 2.17 miles (3.49 km)
Ceiling: at least 12,000 feet AGL
Clouds: few clouds at 2500 feet AGL
Weather: BR  (mist)
Text: BECMG 1901/1903 12010KT 6000 NSW
Forecast period: 0100 to 2000 UTC 19 September 2021
Forecast type: BECOMING: Conditions expected to become as follows by 0300 UTC 19 September 2021
Winds: from the ESE (120 degrees) at 12 MPH (10 knots; 5.1 m/s)
Visibility: 4 miles (6 km)
Ceiling: at least 12,000 feet AGL
Clouds: few clouds at 2500 feet AGL
Weather: NSW  (no significant weather)
Text: BECMG 1920/1922 VRB02KT 3500 BR
Forecast period: 2000 UTC 19 September 2021 to 0000 UTC 20 September 2021
Forecast type: BECOMING: Conditions expected to become as follows by 2200 UTC 19 September 2021
Winds: variable direction winds at 2 MPH (2 knots; 1.0 m/s)
Visibility: 2.17 miles (3.49 km)
Ceiling: at least 12,000 feet AGL
Clouds: few clouds at 2500 feet AGL
Weather: BR  (mist)